sensor_id;sensor_type;location;lat;lon;timestamp;P1;durP1;ratioP1;P2;durP2;ratioP2
61572;SDS011;47465;43.094;12.434;2022-12-07T00:01:36;36.95;;;21.63;;
61572;SDS011;47465;43.094;12.434;2022-12-07T00:04:04;31.45;;;21.00;;
61572;SDS011;47465;43.094;12.434;2022-12-07T00:06:31;37.08;;;22.60;;
61572;SDS011;47465;43.094;12.434;2022-12-07T00:08:58;33.15;;;23.38;;
61572;SDS011;47465;43.094;12.434;2022-12-07T00:11:24;31.20;;;22.08;;
61572;SDS011;47465;43.094;12.434;2022-12-07T00:13:51;35.45;;;23.52;;
61572;SDS011;47465;43.094;12.434;2022-12-07T00:16:18;41.72;;;24.25;;
61572;SDS011;47465;43.094;12.434;2022-12-07T00:18:47;41.13;;;26.52;;
61572;SDS011;47465;43.094;12.434;2022-12-07T00:21:14;36.42;;;25.00;;
61572;SDS011;47465;43.094;12.434;2022-12-07T00:23:42;44.78;;;27.35;;
61572;SDS011;47465;43.094;12.434;2022-12-07T00:26:09;40.22;;;28.48;;
61572;SDS011;47465;43.094;12.434;2022-12-07T00:28:37;42.55;;;27.60;;
61572;SDS011;47465;43.094;12.434;2022-12-07T00:31:03;43.88;;;28.15;;
61572;SDS011;47465;43.094;12.434;2022-12-07T00:33:32;40.33;;;26.63;;
61572;SDS011;47465;43.094;12.434;2022-12-07T00:36:00;41.15;;;27.75;;
61572;SDS011;47465;43.094;12.434;2022-12-07T00:38:27;44.50;;;29.17;;
61572;SDS011;47465;43.094;12.434;2022-12-07T00:40:58;42.40;;;29.17;;
61572;SDS011;47465;43.094;12.434;2022-12-07T00:43:25;46.95;;;29.65;;
61572;SDS011;47465;43.094;12.434;2022-12-07T00:45:51;46.30;;;29.30;;
61572;SDS011;47465;43.094;12.434;2022-12-07T00:48:17;48.97;;;31.80;;
61572;SDS011;47465;43.094;12.434;2022-12-07T00:50:43;47.13;;;30.45;;
61572;SDS011;47465;43.094;12.434;2022-12-07T00:53:11;42.33;;;29.42;;
61572;SDS011;47465;43.094;12.434;2022-12-07T00:55:37;49.05;;;31.30;;
61572;SDS011;47465;43.094;12.434;2022-12-07T00:58:03;53.72;;;34.55;;
61572;SDS011;47465;43.094;12.434;2022-12-07T01:00:29;51.13;;;35.47;;
61572;SDS011;47465;43.094;12.434;2022-12-07T01:02:55;56.40;;;36.38;;
61572;SDS011;47465;43.094;12.434;2022-12-07T01:05:21;56.40;;;34.10;;
61572;SDS011;47465;43.094;12.434;2022-12-07T01:07:47;52.50;;;33.72;;
61572;SDS011;47465;43.094;12.434;2022-12-07T01:10:14;49.83;;;32.67;;
61572;SDS011;47465;43.094;12.434;2022-12-07T01:12:40;48.65;;;32.70;;
61572;SDS011;47465;43.094;12.434;2022-12-07T01:15:07;52.45;;;33.40;;
61572;SDS011;47465;43.094;12.434;2022-12-07T01:17:33;46.95;;;31.42;;
61572;SDS011;47465;43.094;12.434;2022-12-07T01:20:00;44.22;;;29.10;;
61572;SDS011;47465;43.094;12.434;2022-12-07T01:22:26;44.20;;;28.98;;
61572;SDS011;47465;43.094;12.434;2022-12-07T01:24:52;46.05;;;29.35;;
61572;SDS011;47465;43.094;12.434;2022-12-07T01:27:19;42.78;;;27.70;;
61572;SDS011;47465;43.094;12.434;2022-12-07T01:29:45;39.33;;;26.60;;
61572;SDS011;47465;43.094;12.434;2022-12-07T01:32:11;44.83;;;27.80;;
61572;SDS011;47465;43.094;12.434;2022-12-07T01:34:37;48.35;;;26.85;;
61572;SDS011;47465;43.094;12.434;2022-12-07T01:37:03;39.70;;;25.48;;
61572;SDS011;47465;43.094;12.434;2022-12-07T01:39:29;42.63;;;27.92;;
61572;SDS011;47465;43.094;12.434;2022-12-07T01:41:55;37.13;;;26.50;;
61572;SDS011;47465;43.094;12.434;2022-12-07T01:44:23;40.13;;;26.92;;
61572;SDS011;47465;43.094;12.434;2022-12-07T01:46:51;41.85;;;25.17;;
61572;SDS011;47465;43.094;12.434;2022-12-07T01:49:20;42.53;;;25.13;;
61572;SDS011;47465;43.094;12.434;2022-12-07T01:51:52;38.95;;;25.27;;
61572;SDS011;47465;43.094;12.434;2022-12-07T01:54:22;41.97;;;27.67;;
61572;SDS011;47465;43.094;12.434;2022-12-07T01:56:50;39.20;;;25.20;;
61572;SDS011;47465;43.094;12.434;2022-12-07T01:59:19;39.00;;;24.80;;
61572;SDS011;47465;43.094;12.434;2022-12-07T02:01:50;40.60;;;26.67;;
61572;SDS011;47465;43.094;12.434;2022-12-07T02:04:17;40.25;;;25.25;;
61572;SDS011;47465;43.094;12.434;2022-12-07T02:06:43;46.17;;;24.88;;
61572;SDS011;47465;43.094;12.434;2022-12-07T02:09:11;38.95;;;24.85;;
61572;SDS011;47465;43.094;12.434;2022-12-07T02:11:37;41.13;;;23.13;;
61572;SDS011;47465;43.094;12.434;2022-12-07T02:14:03;34.17;;;23.10;;
61572;SDS011;47465;43.094;12.434;2022-12-07T02:16:34;34.95;;;22.25;;
61572;SDS011;47465;43.094;12.434;2022-12-07T02:19:14;36.75;;;22.83;;
61572;SDS011;47465;43.094;12.434;2022-12-07T02:21:58;37.17;;;23.05;;
61572;SDS011;47465;43.094;12.434;2022-12-07T02:24:45;33.67;;;21.75;;
61572;SDS011;47465;43.094;12.434;2022-12-07T02:30:12;32.47;;;21.58;;
61572;SDS011;47465;43.094;12.434;2022-12-07T02:32:44;38.92;;;22.40;;
61572;SDS011;47465;43.094;12.434;2022-12-07T02:35:18;40.13;;;23.25;;
61572;SDS011;47465;43.094;12.434;2022-12-07T02:37:55;41.05;;;24.02;;
61572;SDS011;47465;43.094;12.434;2022-12-07T02:40:28;36.95;;;23.02;;
61572;SDS011;47465;43.094;12.434;2022-12-07T02:43:01;37.97;;;21.80;;
61572;SDS011;47465;43.094;12.434;2022-12-07T02:45:32;40.33;;;25.58;;
61572;SDS011;47465;43.094;12.434;2022-12-07T02:48:03;38.22;;;23.92;;
61572;SDS011;47465;43.094;12.434;2022-12-07T02:50:32;38.93;;;23.97;;
61572;SDS011;47465;43.094;12.434;2022-12-07T02:52:58;39.90;;;25.20;;
61572;SDS011;47465;43.094;12.434;2022-12-07T02:55:25;43.35;;;27.27;;
61572;SDS011;47465;43.094;12.434;2022-12-07T02:57:57;39.53;;;25.52;;
61572;SDS011;47465;43.094;12.434;2022-12-07T03:00:39;42.83;;;24.90;;
61572;SDS011;47465;43.094;12.434;2022-12-07T03:03:16;40.20;;;25.77;;
61572;SDS011;47465;43.094;12.434;2022-12-07T03:05:45;41.22;;;25.90;;
61572;SDS011;47465;43.094;12.434;2022-12-07T03:08:24;38.00;;;24.17;;
61572;SDS011;47465;43.094;12.434;2022-12-07T03:10:56;36.65;;;23.90;;
61572;SDS011;47465;43.094;12.434;2022-12-07T03:13:28;42.10;;;24.58;;
61572;SDS011;47465;43.094;12.434;2022-12-07T03:16:02;44.03;;;27.15;;
61572;SDS011;47465;43.094;12.434;2022-12-07T03:18:35;47.22;;;27.38;;
61572;SDS011;47465;43.094;12.434;2022-12-07T03:21:05;44.72;;;28.42;;
61572;SDS011;47465;43.094;12.434;2022-12-07T03:23:35;42.38;;;28.70;;
61572;SDS011;47465;43.094;12.434;2022-12-07T03:26:04;48.35;;;30.10;;
61572;SDS011;47465;43.094;12.434;2022-12-07T03:28:34;41.88;;;27.27;;
61572;SDS011;47465;43.094;12.434;2022-12-07T03:31:08;45.92;;;27.48;;
61572;SDS011;47465;43.094;12.434;2022-12-07T03:33:40;45.17;;;29.58;;
61572;SDS011;47465;43.094;12.434;2022-12-07T03:36:13;42.20;;;27.02;;
61572;SDS011;47465;43.094;12.434;2022-12-07T03:38:45;46.67;;;28.35;;
61572;SDS011;47465;43.094;12.434;2022-12-07T03:41:16;39.35;;;26.75;;
61572;SDS011;47465;43.094;12.434;2022-12-07T03:43:47;42.15;;;27.67;;
61572;SDS011;47465;43.094;12.434;2022-12-07T03:46:17;43.88;;;27.92;;
61572;SDS011;47465;43.094;12.434;2022-12-07T03:48:52;45.67;;;27.20;;
61572;SDS011;47465;43.094;12.434;2022-12-07T03:51:24;40.50;;;25.95;;
61572;SDS011;47465;43.094;12.434;2022-12-07T03:53:54;37.75;;;23.88;;
61572;SDS011;47465;43.094;12.434;2022-12-07T03:56:24;40.60;;;24.33;;
61572;SDS011;47465;43.094;12.434;2022-12-07T03:58:52;38.30;;;23.52;;
61572;SDS011;47465;43.094;12.434;2022-12-07T04:01:20;37.45;;;23.40;;
61572;SDS011;47465;43.094;12.434;2022-12-07T04:03:48;33.60;;;22.70;;
61572;SDS011;47465;43.094;12.434;2022-12-07T04:06:14;38.40;;;23.05;;
61572;SDS011;47465;43.094;12.434;2022-12-07T04:08:40;32.95;;;21.88;;
61572;SDS011;47465;43.094;12.434;2022-12-07T04:11:05;36.55;;;23.40;;
61572;SDS011;47465;43.094;12.434;2022-12-07T04:13:31;32.08;;;21.00;;
61572;SDS011;47465;43.094;12.434;2022-12-07T04:16:17;37.67;;;22.35;;
61572;SDS011;47465;43.094;12.434;2022-12-07T04:18:44;33.70;;;22.05;;
61572;SDS011;47465;43.094;12.434;2022-12-07T04:21:10;35.70;;;21.60;;
61572;SDS011;47465;43.094;12.434;2022-12-07T04:23:36;36.75;;;22.00;;
61572;SDS011;47465;43.094;12.434;2022-12-07T04:26:02;32.03;;;21.63;;
61572;SDS011;47465;43.094;12.434;2022-12-07T04:28:27;30.88;;;21.35;;
61572;SDS011;47465;43.094;12.434;2022-12-07T04:30:53;30.40;;;20.75;;
61572;SDS011;47465;43.094;12.434;2022-12-07T04:33:19;28.05;;;19.05;;
61572;SDS011;47465;43.094;12.434;2022-12-07T04:35:46;32.28;;;19.75;;
61572;SDS011;47465;43.094;12.434;2022-12-07T04:38:12;30.95;;;20.77;;
61572;SDS011;47465;43.094;12.434;2022-12-07T04:40:38;34.85;;;21.30;;
61572;SDS011;47465;43.094;12.434;2022-12-07T04:43:04;40.40;;;22.98;;
61572;SDS011;47465;43.094;12.434;2022-12-07T04:45:30;34.20;;;22.20;;
61572;SDS011;47465;43.094;12.434;2022-12-07T04:47:56;31.60;;;22.13;;
61572;SDS011;47465;43.094;12.434;2022-12-07T04:50:21;32.78;;;21.88;;
61572;SDS011;47465;43.094;12.434;2022-12-07T04:52:49;29.73;;;20.98;;
61572;SDS011;47465;43.094;12.434;2022-12-07T04:55:15;34.80;;;21.17;;
61572;SDS011;47465;43.094;12.434;2022-12-07T04:57:41;35.38;;;21.83;;
61572;SDS011;47465;43.094;12.434;2022-12-07T05:00:07;31.83;;;21.27;;
61572;SDS011;47465;43.094;12.434;2022-12-07T05:02:33;32.30;;;21.63;;
61572;SDS011;47465;43.094;12.434;2022-12-07T05:04:59;38.80;;;20.75;;
61572;SDS011;47465;43.094;12.434;2022-12-07T05:07:25;32.17;;;20.52;;
61572;SDS011;47465;43.094;12.434;2022-12-07T05:09:52;33.58;;;21.67;;
61572;SDS011;47465;43.094;12.434;2022-12-07T05:12:18;32.90;;;21.52;;
61572;SDS011;47465;43.094;12.434;2022-12-07T05:14:44;37.35;;;22.00;;
61572;SDS011;47465;43.094;12.434;2022-12-07T05:17:10;32.10;;;20.95;;
61572;SDS011;47465;43.094;12.434;2022-12-07T05:19:36;30.08;;;20.45;;
61572;SDS011;47465;43.094;12.434;2022-12-07T05:22:02;35.60;;;21.55;;
61572;SDS011;47465;43.094;12.434;2022-12-07T05:24:28;31.73;;;20.75;;
61572;SDS011;47465;43.094;12.434;2022-12-07T05:26:55;31.45;;;19.63;;
61572;SDS011;47465;43.094;12.434;2022-12-07T05:29:21;33.38;;;19.73;;
61572;SDS011;47465;43.094;12.434;2022-12-07T05:31:47;33.38;;;21.58;;
61572;SDS011;47465;43.094;12.434;2022-12-07T05:34:13;30.98;;;19.42;;
61572;SDS011;47465;43.094;12.434;2022-12-07T05:36:39;33.83;;;19.10;;
61572;SDS011;47465;43.094;12.434;2022-12-07T05:39:05;33.95;;;19.30;;
61572;SDS011;47465;43.094;12.434;2022-12-07T09:51:58;32.40;;;20.83;;
61572;SDS011;47465;43.094;12.434;2022-12-07T09:54:43;31.95;;;19.80;;
61572;SDS011;47465;43.094;12.434;2022-12-07T09:57:21;31.95;;;21.38;;
61572;SDS011;47465;43.094;12.434;2022-12-07T09:59:54;31.45;;;21.55;;
61572;SDS011;47465;43.094;12.434;2022-12-07T10:02:34;29.25;;;21.40;;
61572;SDS011;47465;43.094;12.434;2022-12-07T10:05:14;33.78;;;22.40;;
61572;SDS011;47465;43.094;12.434;2022-12-07T10:07:51;30.80;;;18.40;;
61572;SDS011;47465;43.094;12.434;2022-12-07T10:10:19;26.60;;;18.90;;
61572;SDS011;47465;43.094;12.434;2022-12-07T10:12:58;30.52;;;20.35;;
61572;SDS011;47465;43.094;12.434;2022-12-07T10:15:51;30.58;;;20.70;;
61572;SDS011;47465;43.094;12.434;2022-12-07T10:18:28;28.10;;;18.77;;
61572;SDS011;47465;43.094;12.434;2022-12-07T10:21:03;25.75;;;17.20;;
61572;SDS011;47465;43.094;12.434;2022-12-07T10:26:19;25.58;;;17.60;;
61572;SDS011;47465;43.094;12.434;2022-12-07T10:28:54;25.27;;;15.82;;
61572;SDS011;47465;43.094;12.434;2022-12-07T10:31:57;24.88;;;15.75;;
61572;SDS011;47465;43.094;12.434;2022-12-07T10:34:26;26.65;;;15.23;;
61572;SDS011;47465;43.094;12.434;2022-12-07T10:37:13;26.60;;;15.85;;
61572;SDS011;47465;43.094;12.434;2022-12-07T10:39:48;23.48;;;13.82;;
61572;SDS011;47465;43.094;12.434;2022-12-07T10:42:28;20.25;;;11.20;;
61572;SDS011;47465;43.094;12.434;2022-12-07T10:45:07;25.60;;;11.98;;
61572;SDS011;47465;43.094;12.434;2022-12-07T10:47:35;19.08;;;12.70;;
61572;SDS011;47465;43.094;12.434;2022-12-07T10:53:38;21.83;;;10.95;;
61572;SDS011;47465;43.094;12.434;2022-12-07T10:56:25;20.52;;;10.45;;
61572;SDS011;47465;43.094;12.434;2022-12-07T10:59:04;18.95;;;11.38;;
61572;SDS011;47465;43.094;12.434;2022-12-07T11:01:48;19.52;;;11.88;;
61572;SDS011;47465;43.094;12.434;2022-12-07T11:04:24;25.08;;;12.00;;
61572;SDS011;47465;43.094;12.434;2022-12-07T11:07:01;22.42;;;12.60;;
61572;SDS011;47465;43.094;12.434;2022-12-07T11:12:36;23.93;;;13.03;;
61572;SDS011;47465;43.094;12.434;2022-12-07T11:15:21;21.92;;;12.32;;
61572;SDS011;47465;43.094;12.434;2022-12-07T11:17:58;24.25;;;13.43;;
61572;SDS011;47465;43.094;12.434;2022-12-07T11:20:38;22.33;;;13.45;;
61572;SDS011;47465;43.094;12.434;2022-12-07T11:23:18;23.33;;;13.27;;
61572;SDS011;47465;43.094;12.434;2022-12-07T11:25:53;19.48;;;12.40;;
61572;SDS011;47465;43.094;12.434;2022-12-07T11:28:35;19.50;;;13.00;;
61572;SDS011;47465;43.094;12.434;2022-12-07T11:31:22;20.67;;;13.57;;
61572;SDS011;47465;43.094;12.434;2022-12-07T11:33:56;28.33;;;16.00;;
61572;SDS011;47465;43.094;12.434;2022-12-07T11:36:33;33.10;;;17.77;;
61572;SDS011;47465;43.094;12.434;2022-12-07T11:39:12;28.17;;;15.10;;
61572;SDS011;47465;43.094;12.434;2022-12-07T11:41:56;25.13;;;16.30;;
61572;SDS011;47465;43.094;12.434;2022-12-07T11:44:31;25.35;;;15.43;;
61572;SDS011;47465;43.094;12.434;2022-12-07T11:47:08;25.42;;;13.35;;
61572;SDS011;47465;43.094;12.434;2022-12-07T11:49:50;18.48;;;12.57;;
61572;SDS011;47465;43.094;12.434;2022-12-07T11:52:27;21.10;;;12.43;;
61572;SDS011;47465;43.094;12.434;2022-12-07T11:55:03;16.67;;;11.43;;
61572;SDS011;47465;43.094;12.434;2022-12-07T11:58:00;18.30;;;10.90;;
61572;SDS011;47465;43.094;12.434;2022-12-07T12:00:35;20.58;;;10.70;;
61572;SDS011;47465;43.094;12.434;2022-12-07T12:03:07;21.17;;;9.80;;
61572;SDS011;47465;43.094;12.434;2022-12-07T12:05:41;15.00;;;9.20;;
61572;SDS011;47465;43.094;12.434;2022-12-07T12:08:11;19.60;;;9.75;;
61572;SDS011;47465;43.094;12.434;2022-12-07T12:10:53;19.07;;;9.03;;
61572;SDS011;47465;43.094;12.434;2022-12-07T12:16:41;16.02;;;8.48;;
61572;SDS011;47465;43.094;12.434;2022-12-07T12:19:25;18.23;;;10.13;;
61572;SDS011;47465;43.094;12.434;2022-12-07T12:22:00;13.93;;;9.35;;
61572;SDS011;47465;43.094;12.434;2022-12-07T12:24:41;13.07;;;7.65;;
61572;SDS011;47465;43.094;12.434;2022-12-07T12:27:09;16.95;;;8.13;;
61572;SDS011;47465;43.094;12.434;2022-12-07T12:29:50;14.40;;;8.48;;
61572;SDS011;47465;43.094;12.434;2022-12-07T12:32:19;27.00;;;14.48;;
61572;SDS011;47465;43.094;12.434;2022-12-07T12:34:58;35.08;;;20.00;;
61572;SDS011;47465;43.094;12.434;2022-12-07T12:37:40;31.73;;;17.35;;
61572;SDS011;47465;43.094;12.434;2022-12-07T12:58:28;38.72;;;23.92;;
61572;SDS011;47465;43.094;12.434;2022-12-07T13:04:24;36.53;;;24.23;;
61572;SDS011;47465;43.094;12.434;2022-12-07T13:07:03;35.63;;;22.08;;
61572;SDS011;47465;43.094;12.434;2022-12-07T13:09:44;33.28;;;20.95;;
61572;SDS011;47465;43.094;12.434;2022-12-07T13:12:16;35.95;;;21.83;;
61572;SDS011;47465;43.094;12.434;2022-12-07T13:14:52;44.75;;;25.92;;
61572;SDS011;47465;43.094;12.434;2022-12-07T13:20:52;39.22;;;25.27;;
61572;SDS011;47465;43.094;12.434;2022-12-07T13:24:14;25.20;;;16.52;;
61572;SDS011;47465;43.094;12.434;2022-12-07T13:26:41;33.92;;;18.58;;
61572;SDS011;47465;43.094;12.434;2022-12-07T13:29:12;38.53;;;22.05;;
61572;SDS011;47465;43.094;12.434;2022-12-07T13:37:14;42.58;;;24.48;;
61572;SDS011;47465;43.094;12.434;2022-12-07T13:39:48;43.53;;;26.08;;
61572;SDS011;47465;43.094;12.434;2022-12-07T13:42:19;38.25;;;26.58;;
61572;SDS011;47465;43.094;12.434;2022-12-07T13:44:52;39.90;;;27.65;;
61572;SDS011;47465;43.094;12.434;2022-12-07T13:47:20;35.53;;;24.70;;
61572;SDS011;47465;43.094;12.434;2022-12-07T13:50:00;37.53;;;24.77;;
61572;SDS011;47465;43.094;12.434;2022-12-07T13:52:26;33.20;;;22.77;;
61572;SDS011;47465;43.094;12.434;2022-12-07T13:54:57;34.45;;;23.20;;
61572;SDS011;47465;43.094;12.434;2022-12-07T13:57:25;40.38;;;25.35;;
61572;SDS011;47465;43.094;12.434;2022-12-07T13:59:52;37.88;;;26.75;;
61572;SDS011;47465;43.094;12.434;2022-12-07T14:02:19;42.13;;;26.23;;
61572;SDS011;47465;43.094;12.434;2022-12-07T14:04:47;42.55;;;27.33;;
61572;SDS011;47465;43.094;12.434;2022-12-07T14:07:21;35.13;;;21.65;;
61572;SDS011;47465;43.094;12.434;2022-12-07T14:09:57;39.42;;;24.50;;
61572;SDS011;47465;43.094;12.434;2022-12-07T14:12:28;48.78;;;27.33;;
61572;SDS011;47465;43.094;12.434;2022-12-07T14:14:55;40.80;;;22.85;;
61572;SDS011;47465;43.094;12.434;2022-12-07T14:19:51;21.50;;;12.60;;
61572;SDS011;47465;43.094;12.434;2022-12-07T14:22:33;23.15;;;12.23;;
61572;SDS011;47465;43.094;12.434;2022-12-07T14:25:11;24.48;;;13.55;;
61572;SDS011;47465;43.094;12.434;2022-12-07T14:27:53;19.17;;;12.38;;
61572;SDS011;47465;43.094;12.434;2022-12-07T14:30:22;19.92;;;12.13;;
61572;SDS011;47465;43.094;12.434;2022-12-07T14:32:53;21.73;;;13.05;;
61572;SDS011;47465;43.094;12.434;2022-12-07T14:35:30;25.30;;;16.23;;
61572;SDS011;47465;43.094;12.434;2022-12-07T14:37:57;27.90;;;17.20;;
61572;SDS011;47465;43.094;12.434;2022-12-07T14:40:26;30.10;;;20.45;;
61572;SDS011;47465;43.094;12.434;2022-12-07T14:42:54;37.38;;;23.60;;
61572;SDS011;47465;43.094;12.434;2022-12-07T14:45:29;44.78;;;27.58;;
61572;SDS011;47465;43.094;12.434;2022-12-07T14:47:58;45.17;;;27.75;;
61572;SDS011;47465;43.094;12.434;2022-12-07T14:50:24;44.20;;;25.08;;
61572;SDS011;47465;43.094;12.434;2022-12-07T14:52:51;42.53;;;26.05;;
61572;SDS011;47465;43.094;12.434;2022-12-07T14:55:23;39.38;;;24.35;;
61572;SDS011;47465;43.094;12.434;2022-12-07T14:57:52;39.25;;;26.35;;
61572;SDS011;47465;43.094;12.434;2022-12-07T15:00:21;46.70;;;29.27;;
61572;SDS011;47465;43.094;12.434;2022-12-07T15:02:48;55.65;;;34.30;;
61572;SDS011;47465;43.094;12.434;2022-12-07T15:05:15;51.42;;;32.47;;
61572;SDS011;47465;43.094;12.434;2022-12-07T15:07:41;41.45;;;26.95;;
61572;SDS011;47465;43.094;12.434;2022-12-07T15:10:11;38.83;;;24.92;;
61572;SDS011;47465;43.094;12.434;2022-12-07T15:12:41;38.15;;;24.45;;
61572;SDS011;47465;43.094;12.434;2022-12-07T15:15:08;43.92;;;25.58;;
61572;SDS011;47465;43.094;12.434;2022-12-07T15:17:34;45.10;;;27.38;;
61572;SDS011;47465;43.094;12.434;2022-12-07T15:20:00;45.40;;;27.15;;
61572;SDS011;47465;43.094;12.434;2022-12-07T15:22:26;40.80;;;26.10;;
61572;SDS011;47465;43.094;12.434;2022-12-07T15:24:52;38.08;;;25.48;;
61572;SDS011;47465;43.094;12.434;2022-12-07T15:27:18;41.13;;;26.50;;
61572;SDS011;47465;43.094;12.434;2022-12-07T15:29:44;42.20;;;27.00;;
61572;SDS011;47465;43.094;12.434;2022-12-07T15:32:11;43.15;;;26.63;;
61572;SDS011;47465;43.094;12.434;2022-12-07T15:34:37;41.05;;;27.25;;
61572;SDS011;47465;43.094;12.434;2022-12-07T15:37:03;42.00;;;25.00;;
61572;SDS011;47465;43.094;12.434;2022-12-07T15:39:29;35.75;;;22.52;;
61572;SDS011;47465;43.094;12.434;2022-12-07T15:41:55;42.47;;;26.35;;
61572;SDS011;47465;43.094;12.434;2022-12-07T15:44:20;42.08;;;25.52;;
61572;SDS011;47465;43.094;12.434;2022-12-07T15:47:19;39.08;;;25.33;;
61572;SDS011;47465;43.094;12.434;2022-12-07T15:49:45;38.20;;;23.85;;
61572;SDS011;47465;43.094;12.434;2022-12-07T15:52:11;41.50;;;26.13;;
61572;SDS011;47465;43.094;12.434;2022-12-07T15:54:38;38.90;;;24.45;;
61572;SDS011;47465;43.094;12.434;2022-12-07T15:57:04;41.38;;;24.23;;
61572;SDS011;47465;43.094;12.434;2022-12-07T15:59:30;42.70;;;25.23;;
61572;SDS011;47465;43.094;12.434;2022-12-07T16:01:56;41.55;;;25.45;;
61572;SDS011;47465;43.094;12.434;2022-12-07T16:04:28;43.67;;;26.45;;
61572;SDS011;47465;43.094;12.434;2022-12-07T16:06:54;43.85;;;27.50;;
61572;SDS011;47465;43.094;12.434;2022-12-07T16:09:20;47.72;;;27.20;;
61572;SDS011;47465;43.094;12.434;2022-12-07T16:11:46;44.97;;;27.20;;
61572;SDS011;47465;43.094;12.434;2022-12-07T16:14:13;43.28;;;27.80;;
61572;SDS011;47465;43.094;12.434;2022-12-07T16:16:39;60.88;;;34.10;;
61572;SDS011;47465;43.094;12.434;2022-12-07T16:19:05;58.88;;;31.83;;
61572;SDS011;47465;43.094;12.434;2022-12-07T16:21:34;57.45;;;32.90;;
61572;SDS011;47465;43.094;12.434;2022-12-07T16:24:01;50.50;;;32.03;;
61572;SDS011;47465;43.094;12.434;2022-12-07T16:26:27;45.53;;;28.33;;
61572;SDS011;47465;43.094;12.434;2022-12-07T16:28:53;45.67;;;27.85;;
61572;SDS011;47465;43.094;12.434;2022-12-07T16:31:21;47.85;;;27.55;;
61572;SDS011;47465;43.094;12.434;2022-12-07T16:33:48;51.58;;;30.27;;
61572;SDS011;47465;43.094;12.434;2022-12-07T16:36:15;48.15;;;30.48;;
61572;SDS011;47465;43.094;12.434;2022-12-07T16:38:43;57.88;;;31.63;;
61572;SDS011;47465;43.094;12.434;2022-12-07T16:41:10;52.50;;;31.45;;
61572;SDS011;47465;43.094;12.434;2022-12-07T16:43:36;52.42;;;31.15;;
61572;SDS011;47465;43.094;12.434;2022-12-07T16:46:03;52.03;;;31.88;;
61572;SDS011;47465;43.094;12.434;2022-12-07T16:48:29;50.58;;;31.35;;
61572;SDS011;47465;43.094;12.434;2022-12-07T16:50:55;49.85;;;31.23;;
61572;SDS011;47465;43.094;12.434;2022-12-07T16:53:22;51.47;;;30.70;;
61572;SDS011;47465;43.094;12.434;2022-12-07T16:55:50;57.80;;;36.97;;
61572;SDS011;47465;43.094;12.434;2022-12-07T16:58:17;57.88;;;35.63;;
61572;SDS011;47465;43.094;12.434;2022-12-07T17:00:43;54.85;;;32.75;;
61572;SDS011;47465;43.094;12.434;2022-12-07T17:03:09;47.00;;;28.60;;
61572;SDS011;47465;43.094;12.434;2022-12-07T17:05:37;43.63;;;27.23;;
61572;SDS011;47465;43.094;12.434;2022-12-07T17:08:04;46.53;;;27.20;;
61572;SDS011;47465;43.094;12.434;2022-12-07T17:10:30;38.25;;;25.83;;
61572;SDS011;47465;43.094;12.434;2022-12-07T17:13:00;37.83;;;25.95;;
61572;SDS011;47465;43.094;12.434;2022-12-07T17:15:26;38.63;;;25.23;;
61572;SDS011;47465;43.094;12.434;2022-12-07T17:17:54;35.70;;;22.83;;
61572;SDS011;47465;43.094;12.434;2022-12-07T17:20:21;34.60;;;21.45;;
61572;SDS011;47465;43.094;12.434;2022-12-07T17:22:50;33.92;;;22.02;;
61572;SDS011;47465;43.094;12.434;2022-12-07T17:25:19;33.60;;;21.13;;
61572;SDS011;47465;43.094;12.434;2022-12-07T17:27:46;50.08;;;30.27;;
61572;SDS011;47465;43.094;12.434;2022-12-07T17:30:14;42.13;;;27.40;;
61572;SDS011;47465;43.094;12.434;2022-12-07T17:32:40;40.50;;;25.70;;
61572;SDS011;47465;43.094;12.434;2022-12-07T17:35:06;35.83;;;22.52;;
61572;SDS011;47465;43.094;12.434;2022-12-07T17:37:33;35.15;;;22.63;;
61572;SDS011;47465;43.094;12.434;2022-12-07T17:39:58;38.25;;;22.40;;
61572;SDS011;47465;43.094;12.434;2022-12-07T17:42:24;32.72;;;20.98;;
61572;SDS011;47465;43.094;12.434;2022-12-07T17:45:24;33.65;;;19.40;;
61572;SDS011;47465;43.094;12.434;2022-12-07T17:47:50;33.72;;;20.52;;
61572;SDS011;47465;43.094;12.434;2022-12-07T17:50:16;38.75;;;19.55;;
61572;SDS011;47465;43.094;12.434;2022-12-07T17:53:02;36.50;;;23.20;;
61572;SDS011;47465;43.094;12.434;2022-12-07T17:55:35;39.80;;;25.55;;
61572;SDS011;47465;43.094;12.434;2022-12-07T17:58:01;42.97;;;21.55;;
61572;SDS011;47465;43.094;12.434;2022-12-07T18:00:29;43.35;;;26.73;;
61572;SDS011;47465;43.094;12.434;2022-12-07T18:02:55;47.70;;;34.03;;
61572;SDS011;47465;43.094;12.434;2022-12-07T18:05:21;39.15;;;25.95;;
61572;SDS011;47465;43.094;12.434;2022-12-07T18:07:47;36.42;;;22.17;;
61572;SDS011;47465;43.094;12.434;2022-12-07T18:10:13;51.92;;;33.53;;
61572;SDS011;47465;43.094;12.434;2022-12-07T18:12:38;48.17;;;30.77;;
61572;SDS011;47465;43.094;12.434;2022-12-07T18:15:05;51.55;;;31.17;;
61572;SDS011;47465;43.094;12.434;2022-12-07T18:17:32;44.28;;;28.70;;
61572;SDS011;47465;43.094;12.434;2022-12-07T18:19:58;62.00;;;41.88;;
61572;SDS011;47465;43.094;12.434;2022-12-07T18:22:24;58.10;;;36.08;;
61572;SDS011;47465;43.094;12.434;2022-12-07T18:24:50;68.07;;;42.35;;
61572;SDS011;47465;43.094;12.434;2022-12-07T18:27:16;70.40;;;45.30;;
61572;SDS011;47465;43.094;12.434;2022-12-07T18:29:42;72.00;;;44.15;;
61572;SDS011;47465;43.094;12.434;2022-12-07T18:32:10;68.23;;;44.27;;
61572;SDS011;47465;43.094;12.434;2022-12-07T18:34:37;67.28;;;42.17;;
61572;SDS011;47465;43.094;12.434;2022-12-07T18:39:31;52.97;;;34.97;;
61572;SDS011;47465;43.094;12.434;2022-12-07T18:41:56;55.72;;;34.63;;
61572;SDS011;47465;43.094;12.434;2022-12-07T18:44:22;53.42;;;34.58;;
61572;SDS011;47465;43.094;12.434;2022-12-07T18:46:48;49.47;;;31.55;;
61572;SDS011;47465;43.094;12.434;2022-12-07T18:49:14;52.17;;;33.85;;
61572;SDS011;47465;43.094;12.434;2022-12-07T18:51:42;43.10;;;27.73;;
61572;SDS011;47465;43.094;12.434;2022-12-07T18:54:09;42.53;;;26.75;;
61572;SDS011;47465;43.094;12.434;2022-12-07T18:56:35;49.38;;;30.25;;
61572;SDS011;47465;43.094;12.434;2022-12-07T18:59:01;47.42;;;29.58;;
61572;SDS011;47465;43.094;12.434;2022-12-07T19:02:03;53.17;;;35.78;;
61572;SDS011;47465;43.094;12.434;2022-12-07T19:04:29;56.70;;;38.20;;
61572;SDS011;47465;43.094;12.434;2022-12-07T19:06:55;56.28;;;38.65;;
61572;SDS011;47465;43.094;12.434;2022-12-07T19:09:21;69.38;;;43.90;;
61572;SDS011;47465;43.094;12.434;2022-12-07T19:11:49;79.43;;;50.90;;
61572;SDS011;47465;43.094;12.434;2022-12-07T19:14:16;82.25;;;50.60;;
61572;SDS011;47465;43.094;12.434;2022-12-07T19:16:47;89.63;;;53.63;;
61572;SDS011;47465;43.094;12.434;2022-12-07T19:19:16;99.10;;;55.28;;
61572;SDS011;47465;43.094;12.434;2022-12-07T19:21:43;95.55;;;52.30;;
61572;SDS011;47465;43.094;12.434;2022-12-07T19:24:09;82.45;;;49.88;;
61572;SDS011;47465;43.094;12.434;2022-12-07T19:26:35;86.10;;;50.13;;
61572;SDS011;47465;43.094;12.434;2022-12-07T19:29:02;65.88;;;42.85;;